createdAt,value
2023-04-20T00:00:59.972Z,5.65
2023-04-20T00:03:27.676Z,5.93
2023-04-20T00:05:54.822Z,7.90
2023-04-20T00:08:21.544Z,5.07
2023-04-20T00:10:48.348Z,5.85
2023-04-20T00:13:14.968Z,5.57
2023-04-20T00:15:41.722Z,6.68
2023-04-20T00:18:08.625Z,6.00
2023-04-20T00:20:35.752Z,7.05
2023-04-20T00:23:03.010Z,5.07
2023-04-20T00:25:30.730Z,8.43
2023-04-20T00:27:58.215Z,6.97
2023-04-20T00:30:25.228Z,6.90
2023-04-20T00:32:52.033Z,10.23
2023-04-20T00:35:18.684Z,7.38
2023-04-20T00:37:45.380Z,7.40
2023-04-20T00:40:12.340Z,8.25
2023-04-20T00:42:40.683Z,9.13
2023-04-20T00:45:08.043Z,10.43
2023-04-20T00:47:34.803Z,9.75
2023-04-20T00:50:02.643Z,11.30
2023-04-20T00:52:31.194Z,9.20
2023-04-20T00:54:58.617Z,8.70
2023-04-20T00:57:28.048Z,9.88
2023-04-20T00:59:54.579Z,8.27
2023-04-20T01:02:22.690Z,10.48
2023-04-20T01:04:49.694Z,6.57
2023-04-20T01:07:16.444Z,9.93
2023-04-20T01:09:43.358Z,8.65
2023-04-20T01:12:11.635Z,12.30
2023-04-20T01:14:38.572Z,9.05
2023-04-20T01:17:06.092Z,9.60
2023-04-20T01:19:33.600Z,10.88
2023-04-20T01:22:02.061Z,14.15
2023-04-20T01:24:29.027Z,11.52
2023-04-20T01:26:56.478Z,11.43
2023-04-20T01:29:23.102Z,10.45
2023-04-20T01:31:49.882Z,10.90
2023-04-20T01:34:19.653Z,11.07
2023-04-20T01:36:46.457Z,10.70
2023-04-20T01:39:13.181Z,12.02
2023-04-20T01:41:40.571Z,14.27
2023-04-20T01:44:07.102Z,13.05
2023-04-20T01:46:37.816Z,16.08
2023-04-20T01:49:08.093Z,14.88
2023-04-20T01:51:35.331Z,12.20
2023-04-20T01:54:03.019Z,11.80
2023-04-20T01:56:29.617Z,15.75
2023-04-20T01:58:58.275Z,13.27
2023-04-20T02:01:26.450Z,11.25
2023-04-20T02:03:53.465Z,12.43
2023-04-20T02:06:21.272Z,13.68
2023-04-20T02:08:48.019Z,14.35
2023-04-20T02:11:15.167Z,16.73
2023-04-20T02:13:41.715Z,13.68
2023-04-20T02:16:08.356Z,15.32
2023-04-20T02:18:35.125Z,15.45
2023-04-20T02:21:01.804Z,17.13
2023-04-20T02:23:28.450Z,13.30
2023-04-20T02:25:55.555Z,18.95
2023-04-20T02:28:22.159Z,15.30
2023-04-20T02:30:49.155Z,13.23
2023-04-20T02:33:15.870Z,11.93
2023-04-20T02:35:42.445Z,13.73
2023-04-20T02:38:11.007Z,13.60
2023-04-20T02:40:38.831Z,12.20
2023-04-20T02:43:05.937Z,14.60
2023-04-20T02:45:33.554Z,13.15
2023-04-20T02:48:00.636Z,10.98
2023-04-20T02:50:30.548Z,13.05
2023-04-20T02:53:23.440Z,10.23
2023-04-20T02:56:09.601Z,10.32
2023-04-20T02:58:42.755Z,11.77
2023-04-20T03:01:16.651Z,9.07
2023-04-20T03:03:45.333Z,9.48
2023-04-20T03:06:12.553Z,6.85
2023-04-20T03:08:42.012Z,7.53
2023-04-20T03:11:28.942Z,9.00
2023-04-20T03:13:56.472Z,6.15
2023-04-20T03:16:23.032Z,7.25
2023-04-20T03:18:52.330Z,6.68
2023-04-20T03:21:18.922Z,6.30
2023-04-20T03:23:45.908Z,6.05
2023-04-20T03:26:13.570Z,6.68
2023-04-20T03:29:02.936Z,7.07
2023-04-20T03:31:29.872Z,5.20
2023-04-20T03:33:57.759Z,4.60
2023-04-20T03:36:24.609Z,5.45
2023-04-20T03:38:51.324Z,4.93
2023-04-20T03:41:18.073Z,4.35
2023-04-20T03:43:44.698Z,5.07
2023-04-20T03:46:11.262Z,3.08
2023-04-20T03:48:38.586Z,4.80
2023-04-20T03:51:05.568Z,4.63
2023-04-20T03:53:32.160Z,5.13
2023-04-20T03:55:59.941Z,3.90
2023-04-20T03:58:27.025Z,4.15
2023-04-20T04:01:07.730Z,4.70
2023-04-20T04:03:37.029Z,4.05
2023-04-20T04:06:04.677Z,4.70
2023-04-20T04:08:32.833Z,4.28
2023-04-20T04:11:00.689Z,4.63
2023-04-20T04:13:27.779Z,3.88
2023-04-20T04:15:54.562Z,6.65
2023-04-20T04:18:22.542Z,4.82
2023-04-20T04:20:50.172Z,5.88
2023-04-20T04:23:17.130Z,4.30
2023-04-20T04:25:50.035Z,5.07
2023-04-20T04:28:21.712Z,5.20
2023-04-20T04:31:02.032Z,8.90
2023-04-20T04:33:29.570Z,4.47
2023-04-20T04:35:57.479Z,4.18
2023-04-20T04:38:24.392Z,4.43
2023-04-20T04:40:52.517Z,3.92
2023-04-20T04:43:20.255Z,3.75
2023-04-20T04:45:58.585Z,3.45
2023-04-20T04:48:26.095Z,5.43
2023-04-20T04:50:52.631Z,4.30
2023-04-20T04:53:19.450Z,4.22
2023-04-20T04:55:46.481Z,3.53
2023-04-20T04:58:13.301Z,2.85
2023-04-20T05:00:40.345Z,3.83
2023-04-20T05:03:07.045Z,4.30
2023-04-20T05:05:33.786Z,3.88
2023-04-20T05:08:00.486Z,3.78
2023-04-20T05:10:27.411Z,3.10
2023-04-20T05:12:54.084Z,3.80
2023-04-20T05:15:20.728Z,3.45
2023-04-20T05:17:49.616Z,5.00
2023-04-20T05:20:16.823Z,4.88
2023-04-20T05:22:43.723Z,4.90
2023-04-20T05:25:13.259Z,5.22
2023-04-20T05:27:40.789Z,5.30
2023-04-20T05:30:19.447Z,5.00
2023-04-20T05:32:51.173Z,5.65
2023-04-20T05:35:19.187Z,4.57
2023-04-20T05:37:47.302Z,4.00
2023-04-20T05:40:15.293Z,5.20
2023-04-20T05:42:41.914Z,4.15
2023-04-20T05:45:09.379Z,4.03
2023-04-20T05:47:36.205Z,4.93
2023-04-20T05:50:02.932Z,4.88
2023-04-20T05:52:29.570Z,3.45
2023-04-20T05:54:58.420Z,5.70
2023-04-20T05:57:25.135Z,4.35
2023-04-20T05:59:51.950Z,3.40
2023-04-20T06:02:18.581Z,3.35
2023-04-20T06:04:45.706Z,3.10
2023-04-20T06:07:12.651Z,3.80
2023-04-20T06:09:39.397Z,3.83
2023-04-20T06:12:06.262Z,4.75
2023-04-20T06:14:32.966Z,4.03
2023-04-20T06:16:59.509Z,3.58
2023-04-20T06:19:26.327Z,4.43
2023-04-20T06:21:52.908Z,3.65
2023-04-20T06:24:19.636Z,4.50
2023-04-20T06:26:46.232Z,3.53
2023-04-20T06:29:12.856Z,2.95
2023-04-20T06:31:39.984Z,3.33
2023-04-20T06:34:06.790Z,3.20
2023-04-20T06:36:33.535Z,5.00
2023-04-20T06:39:00.277Z,4.88
2023-04-20T06:41:27.101Z,3.05
2023-04-20T06:43:53.887Z,4.13
2023-04-20T06:46:20.460Z,3.58
2023-04-20T06:48:47.261Z,2.70
2023-04-20T06:51:14.220Z,2.95
2023-04-20T06:53:41.034Z,2.50
2023-04-20T06:56:08.010Z,3.92
2023-04-20T06:58:34.667Z,1.77
2023-04-20T07:01:02.185Z,2.58
2023-04-20T07:03:28.969Z,4.90
2023-04-20T07:05:55.887Z,2.80
2023-04-20T07:08:22.679Z,3.58
2023-04-20T07:10:49.308Z,3.35
2023-04-20T07:13:16.147Z,2.83
2023-04-20T07:15:45.206Z,3.58
2023-04-20T07:18:12.141Z,4.03
2023-04-20T07:20:39.255Z,2.97
2023-04-20T07:23:05.802Z,2.22
2023-04-20T07:25:32.921Z,4.50
2023-04-20T07:27:59.772Z,2.92
2023-04-20T07:30:27.027Z,2.63
2023-04-20T07:32:53.899Z,3.40
2023-04-20T07:35:20.740Z,2.78
2023-04-20T07:37:47.489Z,3.78
2023-04-20T07:40:14.209Z,2.53
2023-04-20T07:42:41.260Z,3.05
2023-04-20T07:45:08.552Z,2.25
2023-04-20T07:47:35.932Z,4.20
2023-04-20T07:50:06.623Z,3.47
2023-04-20T07:52:33.578Z,2.25
2023-04-20T07:55:00.325Z,4.22
2023-04-20T07:57:28.417Z,2.88
2023-04-20T07:59:55.099Z,3.13
2023-04-20T08:02:22.129Z,3.00
2023-04-20T08:04:49.855Z,2.83
2023-04-20T08:07:17.726Z,1.75
2023-04-20T08:09:44.347Z,2.28
2023-04-20T08:12:11.274Z,2.05
2023-04-20T08:14:38.290Z,1.98
2023-04-20T08:17:05.194Z,1.98
2023-04-20T08:19:31.820Z,2.05
2023-04-20T08:21:59.798Z,1.98
2023-04-20T08:24:28.189Z,2.40
2023-04-20T08:26:54.974Z,1.52
2023-04-20T08:29:21.765Z,3.67
2023-04-20T08:31:50.694Z,4.45
2023-04-20T08:34:18.972Z,1.85
2023-04-20T08:36:46.363Z,2.63
2023-04-20T08:39:15.523Z,2.22
2023-04-20T08:41:42.186Z,3.60
2023-04-20T08:44:08.894Z,2.28
2023-04-20T08:46:35.962Z,2.33
2023-04-20T08:49:04.009Z,3.88
2023-04-20T08:51:33.867Z,3.13
2023-04-20T08:54:07.818Z,2.60
2023-04-20T08:56:38.937Z,3.50
2023-04-20T08:59:09.439Z,3.00
2023-04-20T09:01:37.640Z,4.03
2023-04-20T09:04:27.141Z,3.95
2023-04-20T09:06:56.118Z,5.20
2023-04-20T09:09:24.661Z,4.15
2023-04-20T09:12:02.568Z,4.07
2023-04-20T09:14:29.863Z,4.75
2023-04-20T09:17:02.043Z,5.50
2023-04-20T09:19:30.203Z,5.32
2023-04-20T09:21:58.665Z,6.38
2023-04-20T09:24:37.551Z,3.60
2023-04-20T09:27:19.016Z,4.10
2023-04-20T09:29:57.961Z,4.38
2023-04-20T09:32:25.712Z,5.10
2023-04-20T09:34:52.329Z,5.65
2023-04-20T09:37:19.215Z,5.93
2023-04-20T09:39:46.974Z,6.88
2023-04-20T09:42:15.646Z,6.75
2023-04-20T09:44:45.983Z,5.47
2023-04-20T09:47:17.219Z,3.22
2023-04-20T09:49:47.611Z,5.90
2023-04-20T09:52:18.744Z,7.18
2023-04-20T09:54:45.955Z,6.50
2023-04-20T09:57:13.757Z,5.70
2023-04-20T09:59:44.418Z,5.38
2023-04-20T10:02:12.623Z,5.72
2023-04-20T10:04:52.808Z,5.47
2023-04-20T10:07:31.671Z,5.18
2023-04-20T10:10:12.792Z,6.38
2023-04-20T10:12:49.416Z,7.23
2023-04-20T10:15:16.862Z,6.40
2023-04-20T10:17:47.194Z,7.47
2023-04-20T10:20:26.238Z,7.05
2023-04-20T10:22:54.145Z,6.70
2023-04-20T10:25:24.493Z,5.25
2023-04-20T10:28:04.501Z,5.53
2023-04-20T10:30:32.787Z,4.57
2023-04-20T10:33:18.166Z,6.13
2023-04-20T10:35:54.703Z,4.72
2023-04-20T10:38:36.153Z,5.20
2023-04-20T10:41:10.402Z,4.20
2023-04-20T10:43:43.368Z,5.10
2023-04-20T10:46:22.162Z,6.13
2023-04-20T10:49:02.937Z,7.03
2023-04-20T10:51:29.949Z,6.28
2023-04-20T10:54:07.934Z,6.90
2023-04-20T10:56:42.524Z,5.25
2023-04-20T10:59:11.640Z,4.88
2023-04-20T11:01:38.880Z,4.07
2023-04-20T11:04:07.290Z,4.80
2023-04-20T11:06:35.051Z,3.10
2023-04-20T11:09:01.947Z,3.33
2023-04-20T11:11:28.742Z,4.43
2023-04-20T11:14:09.406Z,5.85
2023-04-20T11:16:49.696Z,5.03
2023-04-20T11:19:26.504Z,6.53
2023-04-20T11:21:53.351Z,5.13
2023-04-20T11:24:21.719Z,5.50
2023-04-20T11:26:54.052Z,4.85
2023-04-20T11:29:38.862Z,5.45
2023-04-20T11:32:07.787Z,4.50
2023-04-20T11:34:35.974Z,5.07
2023-04-20T11:37:11.631Z,4.85
2023-04-20T11:39:38.622Z,5.72
2023-04-20T11:42:06.340Z,5.50
2023-04-20T11:44:33.968Z,7.45
2023-04-20T11:47:01.914Z,5.88
2023-04-20T11:49:29.113Z,5.80
2023-04-20T11:51:55.675Z,5.60
2023-04-20T11:54:24.174Z,5.88
2023-04-20T11:56:51.503Z,5.32
2023-04-20T11:59:20.064Z,6.75
2023-04-20T12:01:48.017Z,5.05
2023-04-20T12:04:15.801Z,4.40
2023-04-20T12:06:42.988Z,4.55
2023-04-20T12:09:09.682Z,5.30
2023-04-20T12:11:36.391Z,4.88
2023-04-20T12:14:04.581Z,5.25
2023-04-20T12:16:31.735Z,4.82
2023-04-20T12:18:58.492Z,6.43
2023-04-20T12:21:25.103Z,6.55
2023-04-20T12:23:51.640Z,7.00
2023-04-20T12:26:18.416Z,4.63
2023-04-20T12:28:48.107Z,8.00
2023-04-20T12:31:14.824Z,3.80
2023-04-20T12:33:41.365Z,5.35
2023-04-20T12:36:08.390Z,5.93
2023-04-20T12:38:34.960Z,4.28
2023-04-20T12:41:02.005Z,2.75
2023-04-20T12:43:29.354Z,2.88
2023-04-20T12:45:56.016Z,4.68
2023-04-20T12:48:22.848Z,3.78
2023-04-20T12:50:50.763Z,3.25
2023-04-20T12:53:17.691Z,6.18
2023-04-20T12:55:44.445Z,4.30
2023-04-20T12:58:11.241Z,3.20
2023-04-20T13:00:37.995Z,4.90
2023-04-20T13:03:04.810Z,5.18
2023-04-20T13:05:31.792Z,5.50
2023-04-20T13:07:58.360Z,4.10
2023-04-20T13:10:25.224Z,6.57
2023-04-20T13:12:52.530Z,4.75
2023-04-20T13:15:32.007Z,4.07
2023-04-20T13:18:05.522Z,7.10
2023-04-20T13:20:32.675Z,3.60
2023-04-20T13:23:01.115Z,3.65
2023-04-20T13:25:30.011Z,4.03
2023-04-20T13:27:56.998Z,3.88
2023-04-20T13:30:24.598Z,3.58
2023-04-20T13:32:51.974Z,5.47
2023-04-20T13:35:19.230Z,3.10
2023-04-20T13:37:46.178Z,2.65
2023-04-20T13:40:12.997Z,3.42
2023-04-20T13:42:39.618Z,4.57
2023-04-20T13:45:06.948Z,5.32
2023-04-20T13:47:33.646Z,3.33
2023-04-20T13:50:00.264Z,4.00
2023-04-20T13:52:26.943Z,5.35
2023-04-20T13:54:53.534Z,3.63
2023-04-20T13:57:20.276Z,5.25
2023-04-20T13:59:46.773Z,2.90
2023-04-20T14:02:13.665Z,4.43
2023-04-20T14:04:40.298Z,4.40
2023-04-20T14:07:07.082Z,4.05
2023-04-20T14:09:33.741Z,5.28
2023-04-20T14:12:04.473Z,4.45
2023-04-20T14:14:31.705Z,3.95
2023-04-20T14:16:58.261Z,5.70
2023-04-20T14:19:24.810Z,5.40
2023-04-20T14:21:51.738Z,6.68
2023-04-20T14:24:18.470Z,4.47
2023-04-20T14:26:45.392Z,3.72
2023-04-20T14:29:12.254Z,3.40
2023-04-20T14:31:38.918Z,4.80
2023-04-20T14:34:05.542Z,3.63
2023-04-20T14:36:33.341Z,3.58
2023-04-20T14:38:59.989Z,3.53
2023-04-20T14:41:26.663Z,4.18
2023-04-20T14:43:53.457Z,4.50
2023-04-20T14:46:20.288Z,5.70
2023-04-20T14:48:47.192Z,4.93
2023-04-20T14:51:14.046Z,5.63
2023-04-20T14:53:40.597Z,4.45
2023-04-20T14:56:07.463Z,6.28
2023-04-20T14:58:34.525Z,5.47
2023-04-20T15:01:01.569Z,7.70
2023-04-20T15:03:28.278Z,7.32
2023-04-20T15:06:01.509Z,4.32
2023-04-20T15:08:28.413Z,5.03
2023-04-20T15:10:57.820Z,6.25
2023-04-20T15:13:25.064Z,6.38
2023-04-20T15:15:54.736Z,5.57
2023-04-20T15:18:21.702Z,4.50
2023-04-20T15:20:50.318Z,4.25
2023-04-20T15:23:17.137Z,5.88
2023-04-20T15:25:43.838Z,4.97
2023-04-20T15:28:11.253Z,5.88
2023-04-20T15:30:37.857Z,4.93
2023-04-20T15:33:05.548Z,6.07
2023-04-20T15:35:33.445Z,5.53
2023-04-20T15:38:00.833Z,5.10
2023-04-20T15:40:27.715Z,6.90
2023-04-20T15:42:58.884Z,6.18
2023-04-20T15:45:25.516Z,5.57
2023-04-20T15:47:52.215Z,7.88
2023-04-20T15:50:19.070Z,8.80
2023-04-20T15:52:49.703Z,10.93
2023-04-20T15:55:16.824Z,9.13
2023-04-20T15:57:44.699Z,10.25
2023-04-20T16:00:12.456Z,13.95
2023-04-20T16:02:40.418Z,9.48
2023-04-20T16:05:07.785Z,6.45
2023-04-20T16:07:34.483Z,7.68
2023-04-20T16:10:02.162Z,9.90
2023-04-20T16:12:29.087Z,6.88
2023-04-20T16:14:57.122Z,13.18
2023-04-20T16:17:24.006Z,8.95
2023-04-20T16:19:50.957Z,7.70
2023-04-20T16:22:18.007Z,9.18
2023-04-20T16:24:44.987Z,7.25
2023-04-20T16:27:11.708Z,8.63
2023-04-20T16:29:38.583Z,7.10
2023-04-20T16:32:05.907Z,7.75
2023-04-20T16:34:32.556Z,7.20
2023-04-20T16:36:59.722Z,8.50
2023-04-20T16:39:26.626Z,6.57
2023-04-20T16:41:53.277Z,8.50
2023-04-20T16:44:20.354Z,9.80
2023-04-20T16:46:51.320Z,7.82
2023-04-20T16:49:18.198Z,6.87
2023-04-20T16:51:44.938Z,9.43
2023-04-20T16:54:12.853Z,7.18
2023-04-20T16:56:40.109Z,9.57
2023-04-20T16:59:06.833Z,8.27
2023-04-20T17:01:33.740Z,8.85
2023-04-20T17:04:00.907Z,7.68
2023-04-20T17:06:27.970Z,7.70
2023-04-20T17:08:57.422Z,6.00
2023-04-20T17:11:24.317Z,6.75
2023-04-20T17:13:51.036Z,8.27
2023-04-20T17:16:17.610Z,7.40
2023-04-20T17:18:44.560Z,6.40
2023-04-20T17:21:11.110Z,7.97
2023-04-20T17:23:37.622Z,9.63
2023-04-20T17:26:04.400Z,10.43
2023-04-20T17:28:31.330Z,6.80
2023-04-20T17:30:58.212Z,8.75
2023-04-20T17:33:24.883Z,8.15
2023-04-20T17:35:51.542Z,7.95
2023-04-20T17:38:18.197Z,8.25
2023-04-20T17:40:44.812Z,9.15
2023-04-20T17:43:11.478Z,8.07
2023-04-20T17:45:38.167Z,6.43
2023-04-20T17:48:05.519Z,8.55
2023-04-20T17:50:32.968Z,8.85
2023-04-20T17:53:03.844Z,5.75
2023-04-20T17:55:30.456Z,7.93
2023-04-20T17:57:56.979Z,5.18
2023-04-20T18:00:23.958Z,7.43
2023-04-20T18:02:51.020Z,6.75
2023-04-20T18:05:18.170Z,6.72
2023-04-20T18:07:45.025Z,5.55
2023-04-20T18:10:13.521Z,8.05
2023-04-20T18:12:40.512Z,6.57
2023-04-20T18:15:08.449Z,7.38
2023-04-20T18:17:35.433Z,7.00
2023-04-20T18:20:02.019Z,5.75
2023-04-20T18:22:28.576Z,6.88
2023-04-20T18:24:55.343Z,6.00
2023-04-20T18:27:21.910Z,6.97
2023-04-20T18:29:49.495Z,6.32
2023-04-20T18:32:17.968Z,7.03
2023-04-20T18:34:44.690Z,8.55
2023-04-20T18:37:12.517Z,8.40
2023-04-20T18:39:40.140Z,6.97
2023-04-20T18:42:06.691Z,6.50
2023-04-20T18:44:33.537Z,6.03
2023-04-20T18:47:00.179Z,10.65
2023-04-20T18:49:26.909Z,9.10
2023-04-20T18:51:53.698Z,8.63
2023-04-20T18:54:20.306Z,8.68
2023-04-20T18:56:47.108Z,6.85
2023-04-20T18:59:13.949Z,5.65
2023-04-20T19:01:41.522Z,6.85
2023-04-20T19:04:09.053Z,7.90
2023-04-20T19:06:35.887Z,7.95
2023-04-20T19:09:02.636Z,6.47
2023-04-20T19:11:31.324Z,9.15
2023-04-20T19:13:58.076Z,6.90
2023-04-20T19:16:24.676Z,7.35
2023-04-20T19:18:51.474Z,6.72
2023-04-20T19:21:18.831Z,6.90
2023-04-20T19:23:47.520Z,7.47
2023-04-20T19:26:14.219Z,9.23
2023-04-20T19:28:40.758Z,7.72
2023-04-20T19:31:09.464Z,6.72
2023-04-20T19:33:36.237Z,6.95
2023-04-20T19:36:06.151Z,8.88
2023-04-20T19:38:34.746Z,5.90
2023-04-20T19:41:01.820Z,8.15
2023-04-20T19:43:28.380Z,7.00
2023-04-20T19:45:59.158Z,9.40
2023-04-20T19:48:25.955Z,7.80
2023-04-20T19:50:53.365Z,7.00
2023-04-20T19:53:19.916Z,6.30
2023-04-20T19:55:46.567Z,5.95
2023-04-20T19:58:13.423Z,5.70
2023-04-20T20:00:40.239Z,5.68
2023-04-20T20:03:10.492Z,5.85
2023-04-20T20:05:37.348Z,5.63
2023-04-20T20:08:04.369Z,7.10
2023-04-20T20:10:31.478Z,5.80
2023-04-20T20:12:58.150Z,6.35
2023-04-20T20:15:24.848Z,5.57
2023-04-20T20:17:55.224Z,7.15
2023-04-20T20:20:30.209Z,8.13
2023-04-20T20:22:56.992Z,8.18
2023-04-20T20:25:23.906Z,8.35
2023-04-20T20:27:51.089Z,6.55
2023-04-20T20:30:18.344Z,6.03
2023-04-20T20:32:45.061Z,10.30
2023-04-20T20:35:12.986Z,11.13
2023-04-20T20:37:40.618Z,9.68
2023-04-20T20:40:14.453Z,8.77
2023-04-20T20:42:45.110Z,9.80
2023-04-20T20:45:13.098Z,7.88
2023-04-20T20:47:41.313Z,8.40
2023-04-20T20:50:09.315Z,7.03
2023-04-20T20:52:36.046Z,8.25
2023-04-20T20:55:03.973Z,7.93
2023-04-20T20:57:31.016Z,6.32
2023-04-20T20:59:57.524Z,8.15
2023-04-20T21:02:24.431Z,8.63
2023-04-20T21:04:51.419Z,9.15
2023-04-20T21:07:18.206Z,9.65
2023-04-20T21:09:46.228Z,7.70
2023-04-20T21:12:12.817Z,9.88
2023-04-20T21:14:39.655Z,9.65
2023-04-20T21:17:06.275Z,8.63
2023-04-20T21:19:33.245Z,7.63
2023-04-20T21:21:59.943Z,9.95
2023-04-20T21:24:26.920Z,9.32
2023-04-20T21:26:53.604Z,8.25
2023-04-20T21:29:20.617Z,7.10
2023-04-20T21:31:47.615Z,9.50
2023-04-20T21:34:14.517Z,7.65
2023-04-20T21:36:41.196Z,9.25
2023-04-20T21:39:07.882Z,9.00
2023-04-20T21:41:34.835Z,7.78
2023-04-20T21:44:02.543Z,10.43
2023-04-20T21:46:29.590Z,14.15
2023-04-20T21:48:56.268Z,11.50
2023-04-20T21:51:23.006Z,9.85
2023-04-20T21:53:49.600Z,11.90
2023-04-20T21:56:18.227Z,10.73
2023-04-20T21:58:45.192Z,12.10
2023-04-20T22:01:11.787Z,11.68
2023-04-20T22:03:38.617Z,8.75
2023-04-20T22:06:06.445Z,9.90
2023-04-20T22:08:33.159Z,14.32
2023-04-20T22:10:59.926Z,14.05
2023-04-20T22:13:26.791Z,13.70
2023-04-20T22:15:53.468Z,14.23
2023-04-20T22:18:20.185Z,14.27
2023-04-20T22:20:46.961Z,12.98
2023-04-20T22:23:13.503Z,12.63
2023-04-20T22:25:40.967Z,14.57
2023-04-20T22:28:07.555Z,10.27
2023-04-20T22:30:35.708Z,12.25
2023-04-20T22:33:03.886Z,11.88
2023-04-20T22:35:30.719Z,14.77
2023-04-20T22:37:57.442Z,12.98
2023-04-20T22:40:24.298Z,16.00
2023-04-20T22:42:51.033Z,14.57
2023-04-20T22:45:19.745Z,13.18
2023-04-20T22:47:47.237Z,15.50
2023-04-20T22:50:13.986Z,17.42
2023-04-20T22:52:40.683Z,19.48
2023-04-20T22:55:08.962Z,14.85
2023-04-20T22:57:35.789Z,15.32
2023-04-20T23:00:06.345Z,15.20
2023-04-20T23:02:33.169Z,15.07
2023-04-20T23:04:59.955Z,13.40
2023-04-20T23:07:27.538Z,15.68
2023-04-20T23:09:56.370Z,14.43
2023-04-20T23:12:23.559Z,13.50
2023-04-20T23:14:50.833Z,17.38
2023-04-20T23:17:17.786Z,16.35
2023-04-20T23:19:44.628Z,15.75
2023-04-20T23:22:11.536Z,14.40
2023-04-20T23:24:38.474Z,14.82
2023-04-20T23:27:05.494Z,15.13
2023-04-20T23:29:33.028Z,15.85
2023-04-20T23:32:00.794Z,15.80
2023-04-20T23:34:27.416Z,16.33
2023-04-20T23:36:54.505Z,15.32
2023-04-20T23:39:21.702Z,13.65
2023-04-20T23:41:48.623Z,13.82
2023-04-20T23:44:15.380Z,13.02
2023-04-20T23:46:42.156Z,11.93
2023-04-20T23:49:08.971Z,12.90
2023-04-20T23:51:35.533Z,15.02
2023-04-20T23:54:02.234Z,12.30
2023-04-20T23:56:29.278Z,12.82
2023-04-20T23:58:56.029Z,14.15
